Time;durP1;ratioP1;P1;durP2;ratioP2;P2;SDS_P1;SDS_P2;PMS_P1;PMS_P2;Temp;Humidity;BMP_temperature;BMP_pressure;BME280_temperature;BME280_humidity;BME280_pressure;Samples;Min_cycle;Max_cycle;Signal;HPM_P1;HPM_P2
2022/01/13 00:01:55;;;;;;;62.33;16.13;;;;;;;1.65;100.00;104196.53;5044221;28;20054;-73
2022/01/13 00:04:20;;;;;;;70.90;16.90;;;;;;;1.64;100.00;104195.63;5018578;28;20123;-74
2022/01/13 00:06:46;;;;;;;71.05;16.00;;;;;;;1.63;100.00;104201.56;5046480;28;20025;-73
2022/01/13 00:09:13;;;;;;;66.20;16.08;;;;;;;1.61;100.00;104204.78;5056530;28;20042;-73
2022/01/13 00:11:38;;;;;;;72.95;16.08;;;;;;;1.59;100.00;104202.13;5053656;28;20052;-73
2022/01/13 00:19:34;;;;;;;62.40;15.25;;;;;;;1.53;100.00;104207.72;5053617;28;20143;-73
2022/01/13 00:22:15;;;;;;;62.92;14.90;;;;;;;1.55;100.00;104210.38;5054546;28;20025;-73
2022/01/13 00:24:44;;;;;;;60.45;14.60;;;;;;;1.55;100.00;104213.81;5016424;28;20025;-74
2022/01/13 00:27:12;;;;;;;59.30;15.43;;;;;;;1.55;100.00;104215.50;5039327;28;20035;-74
2022/01/13 00:29:43;;;;;;;64.45;16.55;;;;;;;1.57;100.00;104219.91;5069265;28;20024;-83
2022/01/13 00:32:10;;;;;;;62.38;14.93;;;;;;;1.58;100.00;104224.25;5057053;28;20452;-83
2022/01/13 00:34:35;;;;;;;59.67;15.07;;;;;;;1.59;100.00;104215.78;5052036;28;20060;-83
2022/01/13 00:37:00;;;;;;;73.03;16.40;;;;;;;1.56;100.00;104205.38;5057941;28;20090;-83
2022/01/13 00:39:26;;;;;;;66.05;16.25;;;;;;;1.58;100.00;104208.00;5039338;28;20025;-82
2022/01/13 00:41:52;;;;;;;61.28;15.77;;;;;;;1.58;100.00;104196.13;5058898;28;20461;-83
2022/01/13 00:44:20;;;;;;;62.95;16.05;;;;;;;1.59;100.00;104186.78;5036583;28;20157;-83
2022/01/13 00:46:56;;;;;;;65.80;15.93;;;;;;;1.59;100.00;104187.66;5059975;28;20020;-83
2022/01/13 00:49:21;;;;;;;90.03;17.77;;;;;;;1.57;100.00;104186.69;5042877;28;20032;-82
2022/01/13 00:51:46;;;;;;;78.80;16.50;;;;;;;1.55;100.00;104179.72;5044610;28;20035;-83
2022/01/13 00:54:12;;;;;;;69.35;15.93;;;;;;;1.56;100.00;104182.38;5052018;28;20028;-83
2022/01/13 00:56:38;;;;;;;67.65;15.43;;;;;;;1.53;100.00;104187.25;5044990;28;20063;-83
2022/01/13 00:59:09;;;;;;;56.38;15.13;;;;;;;1.53;100.00;104187.25;5046017;28;20090;-74
2022/01/13 01:01:40;;;;;;;50.40;13.75;;;;;;;1.51;100.00;104183.72;5044288;28;20029;-74
2022/01/13 01:04:06;;;;;;;55.85;14.20;;;;;;;1.50;100.00;104181.94;5049086;28;20399;-74
2022/01/13 01:06:32;;;;;;;48.08;14.07;;;;;;;1.47;100.00;104179.19;5029618;28;20753;-74
2022/01/13 01:08:58;;;;;;;67.70;15.55;;;;;;;1.42;100.00;104180.56;5041967;28;20037;-74
2022/01/13 01:11:26;;;;;;;59.90;14.00;;;;;;;1.39;100.00;104176.91;5056696;28;20116;-74
2022/01/13 01:13:58;;;;;;;50.95;13.98;;;;;;;1.38;100.00;104176.00;5029173;28;20029;-74
2022/01/13 01:16:25;;;;;;;49.00;13.38;;;;;;;1.40;100.00;104181.22;5046066;28;20512;-74
2022/01/13 01:19:02;;;;;;;52.25;14.95;;;;;;;1.39;100.00;104182.00;5053430;28;20079;-74
2022/01/13 01:29:21;;;;;;;59.10;14.10;;;;;;;1.35;100.00;104182.59;5051814;28;20150;-74
2022/01/13 01:31:52;;;;;;;45.38;12.23;;;;;;;1.35;100.00;104187.72;5021006;28;20052;-74
2022/01/13 01:35:13;;;;;;;46.15;13.75;;;;;;;1.35;100.00;104185.16;5046671;28;20413;-74
2022/01/13 01:37:17;;;;;;;61.38;13.82;;;;;;;1.37;100.00;104183.56;5056338;28;20466;-74
2022/01/13 01:39:48;;;;;;;53.17;14.30;;;;;;;1.37;100.00;104179.34;5051311;28;20048;-74
2022/01/13 01:42:14;;;;;;;51.08;13.38;;;;;;;1.39;100.00;104185.44;5034972;28;20032;-74
2022/01/13 01:44:44;;;;;;;45.15;14.55;;;;;;;1.41;100.00;104186.44;5051826;28;20500;-74
2022/01/13 01:47:13;;;;;;;44.00;12.93;;;;;;;1.39;100.00;104177.78;5034072;28;20016;-74
2022/01/13 01:49:43;;;;;;;51.28;13.88;;;;;;;1.38;100.00;104173.44;5062249;28;20407;-74
2022/01/13 01:52:11;;;;;;;57.53;13.57;;;;;;;1.36;100.00;104169.94;5048974;28;20131;-74
2022/01/13 01:54:36;;;;;;;45.85;11.98;;;;;;;1.35;100.00;104175.81;5032818;28;20043;-74
2022/01/13 01:57:03;;;;;;;46.20;12.45;;;;;;;1.35;100.00;104173.25;5052813;28;20028;-74
2022/01/13 01:59:31;;;;;;;54.35;13.82;;;;;;;1.36;100.00;104174.16;5039513;28;20498;-74
2022/01/13 02:01:58;;;;;;;45.30;13.18;;;;;;;1.34;100.00;104174.03;5051391;28;20031;-74
2022/01/13 02:04:26;;;;;;;50.20;13.13;;;;;;;1.37;100.00;104176.78;5043703;28;20025;-74
2022/01/13 02:06:52;;;;;;;46.50;13.02;;;;;;;1.36;100.00;104176.72;5045971;28;20052;-74
2022/01/13 02:09:18;;;;;;;45.70;12.68;;;;;;;1.37;100.00;104186.13;5060347;28;20078;-74
2022/01/13 02:11:48;;;;;;;44.45;12.73;;;;;;;1.36;100.00;104185.25;5039619;28;20252;-74
2022/01/13 02:16:54;;;;;;;43.40;12.65;;;;;;;1.34;100.00;104180.81;5055549;28;20032;-74
2022/01/13 02:19:20;;;;;;;39.42;12.48;;;;;;;1.35;100.00;104186.03;5071267;28;20444;-74
2022/01/13 02:21:46;;;;;;;55.22;12.50;;;;;;;1.34;100.00;104184.25;5057429;28;20066;-73
2022/01/13 02:24:11;;;;;;;42.45;12.23;;;;;;;1.34;100.00;104178.25;5063723;28;20051;-73
2022/01/13 02:26:37;;;;;;;44.55;11.90;;;;;;;1.35;100.00;104180.94;5051597;28;20107;-73
2022/01/13 02:29:03;;;;;;;42.72;12.27;;;;;;;1.30;100.00;104182.25;5056962;28;20083;-73
2022/01/13 02:31:28;;;;;;;40.22;12.57;;;;;;;1.32;100.00;104192.59;5053385;28;20478;-74
2022/01/13 02:33:54;;;;;;;40.35;12.65;;;;;;;1.31;100.00;104189.16;5067524;28;20550;-73
2022/01/13 02:36:22;;;;;;;41.50;12.50;;;;;;;1.31;100.00;104186.59;5045698;28;21325;-73
2022/01/13 02:38:53;;;;;;;38.50;12.18;;;;;;;1.31;100.00;104186.59;5041304;28;20078;-74
2022/01/13 02:41:19;;;;;;;47.28;12.55;;;;;;;1.32;100.00;104190.94;5028649;28;20518;-73
2022/01/13 02:43:46;;;;;;;41.22;13.10;;;;;;;1.33;100.00;104185.03;5055748;28;20037;-73
2022/01/13 02:49:05;;;;;;;41.30;11.90;;;;;;;1.37;100.00;104176.78;5056088;28;20591;-73
2022/01/13 02:51:30;;;;;;;44.20;12.85;;;;;;;1.38;100.00;104178.56;5055364;28;20545;-73
2022/01/13 02:53:55;;;;;;;39.45;12.27;;;;;;;1.40;100.00;104174.44;5042485;28;20029;-73
2022/01/13 02:56:21;;;;;;;38.58;11.75;;;;;;;1.42;100.00;104172.91;5054321;28;20479;-73
2022/01/13 02:58:46;;;;;;;41.05;12.45;;;;;;;1.45;100.00;104180.75;5058668;28;20040;-73
2022/01/13 03:01:13;;;;;;;40.53;12.45;;;;;;;1.46;100.00;104187.63;5054197;28;20028;-73
2022/01/13 03:03:39;;;;;;;40.85;12.80;;;;;;;1.47;100.00;104185.97;5049258;28;20025;-73
2022/01/13 03:06:06;;;;;;;58.60;12.02;;;;;;;1.47;100.00;104188.53;5035217;28;20028;-73
2022/01/13 03:08:32;;;;;;;45.97;11.90;;;;;;;1.43;100.00;104184.88;5070599;28;20085;-73
2022/01/13 03:10:57;;;;;;;38.08;12.13;;;;;;;1.41;100.00;104176.22;5050887;28;20252;-73
2022/01/13 03:13:23;;;;;;;40.38;11.68;;;;;;;1.43;100.00;104173.78;5058259;28;20025;-73
2022/01/13 03:15:49;;;;;;;44.00;12.30;;;;;;;1.42;100.00;104178.00;5048701;28;20239;-74
2022/01/13 03:18:14;;;;;;;44.35;11.60;;;;;;;1.40;100.00;104181.22;5056592;28;20031;-73
2022/01/13 03:20:39;;;;;;;36.78;11.23;;;;;;;1.35;100.00;104165.59;5059467;28;20040;-73
2022/01/13 03:23:05;;;;;;;39.20;11.55;;;;;;;1.41;100.00;104178.78;5062231;28;20474;-73
2022/01/13 03:25:31;;;;;;;45.13;10.88;;;;;;;1.41;100.00;104167.66;5037963;28;20024;-73
2022/01/13 03:28:04;;;;;;;46.75;11.68;;;;;;;1.41;100.00;104160.91;5046464;28;20032;-73
2022/01/13 03:30:29;;;;;;;41.95;11.45;;;;;;;1.39;100.00;104154.78;5049711;28;20028;-74
2022/01/13 03:32:55;;;;;;;39.75;11.73;;;;;;;1.39;100.00;104148.78;5065732;28;20059;-73
2022/01/13 03:35:20;;;;;;;41.22;11.63;;;;;;;1.40;100.00;104151.44;5057479;28;20110;-73
2022/01/13 03:37:46;;;;;;;37.30;11.05;;;;;;;1.40;100.00;104156.56;5053006;28;20028;-73
2022/01/13 03:40:12;;;;;;;48.15;11.30;;;;;;;1.38;100.00;104150.44;5055470;28;20053;-73
2022/01/13 03:42:37;;;;;;;46.78;11.77;;;;;;;1.35;100.00;104152.81;5058210;28;20506;-73
2022/01/13 03:45:03;;;;;;;44.65;11.05;;;;;;;1.35;100.00;104159.59;5057822;28;20024;-73
2022/01/13 03:47:28;;;;;;;42.38;11.38;;;;;;;1.34;100.00;104145.94;5052780;28;20489;-74
2022/01/13 03:49:54;;;;;;;36.80;10.80;;;;;;;1.32;100.00;104144.94;5067527;28;20510;-73
2022/01/13 03:52:22;;;;;;;37.38;11.32;;;;;;;1.32;100.00;104150.03;5036250;28;20086;-74
2022/01/13 03:55:25;;;;;;;33.20;10.48;;;;;;;1.34;100.00;104153.59;5057143;28;20064;-74
2022/01/13 03:58:21;;;;;;;52.95;10.55;;;;;;;1.35;100.00;104152.81;5026717;28;20423;-74
2022/01/13 04:01:07;;;;;;;33.13;10.38;;;;;;;1.36;100.00;104157.16;5045636;28;20096;-73
2022/01/13 04:03:32;;;;;;;30.77;9.40;;;;;;;1.34;100.00;104155.25;5049560;28;20088;-73
2022/01/13 04:06:01;;;;;;;43.67;9.80;;;;;;;1.35;100.00;104155.38;5053489;28;20103;-74
2022/01/13 04:08:26;;;;;;;54.80;10.55;;;;;;;1.32;100.00;104152.59;5050622;28;20017;-74
2022/01/13 04:11:04;;;;;;;26.73;9.00;;;;;;;1.35;100.00;104154.50;5050474;28;20068;-74
2022/01/13 04:13:46;;;;;;;34.95;10.00;;;;;;;1.32;100.00;104150.03;5051926;28;20024;-73
2022/01/13 04:16:16;;;;;;;35.78;9.27;;;;;;;1.32;100.00;104150.03;5053391;28;20110;-74
2022/01/13 04:18:42;;;;;;;37.50;9.77;;;;;;;1.31;100.00;104148.25;5064534;28;20025;-74
2022/01/13 04:21:08;;;;;;;33.72;9.73;;;;;;;1.31;100.00;104145.72;5027586;28;20028;-73
2022/01/13 04:23:33;;;;;;;29.95;9.18;;;;;;;1.30;100.00;104138.81;5044868;28;20055;-73
2022/01/13 04:25:59;;;;;;;38.88;9.15;;;;;;;1.30;100.00;104143.94;5054919;28;20021;-74
2022/01/13 04:28:29;;;;;;;33.80;9.32;;;;;;;1.30;100.00;104136.28;5059195;28;20052;-73
2022/01/13 04:31:00;;;;;;;35.25;9.82;;;;;;;1.32;100.00;104137.28;5046971;28;20031;-74
2022/01/13 04:33:34;;;;;;;35.92;10.45;;;;;;;1.29;100.00;104134.53;5035781;28;20028;-73
2022/01/13 04:36:01;;;;;;;45.70;10.07;;;;;;;1.30;100.00;104125.19;5024026;28;20052;-74
2022/01/13 04:38:27;;;;;;;35.42;9.80;;;;;;;1.29;100.00;104139.63;5047774;28;20380;-73
2022/01/13 04:40:57;;;;;;;34.72;10.00;;;;;;;1.28;100.00;104129.31;5055340;28;20550;-73
2022/01/13 04:43:24;;;;;;;34.35;10.38;;;;;;;1.28;100.00;104135.31;5064313;28;20489;-73
2022/01/13 04:45:50;;;;;;;49.40;11.32;;;;;;;1.29;100.00;104136.19;5060505;28;20029;-73
2022/01/13 04:48:16;;;;;;;41.53;10.70;;;;;;;1.30;100.00;104132.84;5052059;28;20056;-73
2022/01/13 04:50:43;;;;;;;42.17;10.20;;;;;;;1.29;100.00;104128.53;5047940;28;20104;-73
2022/01/13 04:53:09;;;;;;;37.35;10.55;;;;;;;1.26;100.00;104136.88;5041617;28;20029;-74
2022/01/13 04:55:36;;;;;;;42.33;11.40;;;;;;;1.23;100.00;104128.97;5045249;28;20039;-74
2022/01/13 04:58:03;;;;;;;42.97;11.48;;;;;;;1.23;100.00;104135.78;5056525;28;20031;-73
2022/01/13 05:00:30;;;;;;;45.88;11.93;;;;;;;1.24;100.00;104138.41;5031123;28;20029;-73
2022/01/13 05:02:56;;;;;;;43.50;11.90;;;;;;;1.21;100.00;104135.69;5034890;28;20051;-73
2022/01/13 05:05:22;;;;;;;39.28;11.65;;;;;;;1.22;100.00;104137.44;5056005;28;20389;-74
2022/01/13 05:07:48;;;;;;;43.20;11.27;;;;;;;1.24;100.00;104140.97;5043645;28;20096;-73
2022/01/13 05:10:14;;;;;;;42.63;11.63;;;;;;;1.25;100.00;104142.75;5035352;28;20480;-73
2022/01/13 05:12:44;;;;;;;44.28;11.40;;;;;;;1.27;100.00;104147.97;5051313;28;20087;-74
2022/01/13 05:15:17;;;;;;;46.80;11.95;;;;;;;1.28;100.00;104140.41;5044288;28;20484;-73
2022/01/13 05:20:28;;;;;;;41.85;11.68;;;;;;;1.31;100.00;104148.25;5054018;28;20072;-73
2022/01/13 05:22:54;;;;;;;57.78;12.27;;;;;;;1.32;100.00;104150.03;5050704;28;20039;-74
2022/01/13 05:25:21;;;;;;;49.30;13.02;;;;;;;1.31;100.00;104153.38;5049577;28;20340;-73
2022/01/13 05:27:47;;;;;;;43.42;11.70;;;;;;;1.31;100.00;104144.81;5043701;28;20028;-73
2022/01/13 05:30:15;;;;;;;44.22;12.85;;;;;;;1.31;100.00;104139.72;5046843;28;20107;-74
2022/01/13 05:32:41;;;;;;;46.63;12.35;;;;;;;1.32;100.00;104136.38;5057929;28;20107;-74
2022/01/13 05:35:07;;;;;;;48.90;12.40;;;;;;;1.32;100.00;104139.81;5055638;28;20472;-74
2022/01/13 05:37:33;;;;;;;53.78;13.35;;;;;;;1.32;100.00;104139.81;5051822;28;20478;-73
2022/01/13 05:39:58;;;;;;;51.83;11.68;;;;;;;1.30;100.00;104130.31;5050506;28;20099;-73
2022/01/13 05:42:24;;;;;;;48.80;12.02;;;;;;;1.27;100.00;104146.31;5064573;28;20036;-73
2022/01/13 05:44:49;;;;;;;51.10;11.85;;;;;;;1.25;100.00;104142.75;5053023;28;20475;-73
2022/01/13 05:47:15;;;;;;;44.25;11.40;;;;;;;1.19;100.00;104143.22;5039493;28;20021;-73
2022/01/13 05:49:42;;;;;;;41.75;11.70;;;;;;;1.22;100.00;104144.22;5046042;28;20032;-73
2022/01/13 05:52:11;;;;;;;52.75;11.50;;;;;;;1.20;100.00;104139.00;5058063;28;20036;-73
2022/01/13 05:54:38;;;;;;;55.78;12.10;;;;;;;1.22;100.00;104139.13;5056314;28;20033;-73
2022/01/13 05:57:04;;;;;;;49.30;12.38;;;;;;;1.21;100.00;104143.34;5068259;28;20037;-73
2022/01/13 05:59:29;;;;;;;54.40;12.32;;;;;;;1.19;100.00;104132.13;5058257;28;20032;-73
2022/01/13 06:01:55;;;;;;;50.42;11.60;;;;;;;1.21;100.00;104139.91;5061464;28;20345;-73
2022/01/13 06:04:20;;;;;;;60.05;12.77;;;;;;;1.20;100.00;104139.00;5062829;28;20020;-73
2022/01/13 06:06:46;;;;;;;51.92;12.77;;;;;;;1.19;100.00;104143.22;5053879;28;20021;-73
2022/01/13 06:09:11;;;;;;;50.70;12.13;;;;;;;1.19;100.00;104150.00;5050084;28;20025;-74
2022/01/13 06:11:39;;;;;;;46.90;11.70;;;;;;;1.18;100.00;104150.78;5036716;28;20033;-73
2022/01/13 06:14:05;;;;;;;56.05;13.10;;;;;;;1.19;100.00;104148.34;5041326;28;20059;-73
2022/01/13 06:16:31;;;;;;;52.97;12.68;;;;;;;1.19;100.00;104150.00;5053992;28;20386;-73
2022/01/13 06:18:56;;;;;;;56.05;12.27;;;;;;;1.16;100.00;104144.72;5050982;28;20032;-73
2022/01/13 06:21:21;;;;;;;53.28;11.88;;;;;;;1.21;100.00;104147.56;5055019;28;20029;-73
2022/01/13 06:23:47;;;;;;;54.22;12.20;;;;;;;1.18;100.00;104140.56;5057649;28;20029;-73
2022/01/13 06:26:12;;;;;;;63.13;12.70;;;;;;;1.22;100.00;104134.00;5049405;28;20041;-73
2022/01/13 06:28:37;;;;;;;59.13;12.95;;;;;;;1.23;100.00;104135.78;5036762;28;20040;-73
2022/01/13 06:31:03;;;;;;;61.35;13.15;;;;;;;1.23;100.00;104141.75;5050743;28;20554;-73
2022/01/13 06:33:29;;;;;;;49.42;12.50;;;;;;;1.22;100.00;104137.44;5039974;28;20109;-73
2022/01/13 06:35:55;;;;;;;54.05;13.57;;;;;;;1.24;100.00;104133.31;5048173;28;20025;-74
2022/01/13 06:38:20;;;;;;;52.88;12.27;;;;;;;1.24;100.00;104133.31;5034580;28;20028;-73
2022/01/13 06:40:47;;;;;;;64.38;12.55;;;;;;;1.25;100.00;104126.53;5066574;28;20503;-73
2022/01/13 06:43:12;;;;;;;59.47;12.35;;;;;;;1.25;100.00;104132.53;5037192;28;20024;-73
2022/01/13 06:45:38;;;;;;;61.25;13.52;;;;;;;1.26;100.00;104135.97;5047229;28;20016;-73
2022/01/13 06:48:03;;;;;;;56.53;12.50;;;;;;;1.22;100.00;104121.22;5052708;28;20115;-74
2022/01/13 06:50:28;;;;;;;58.95;13.85;;;;;;;1.26;100.00;104131.75;5042688;28;20179;-73
2022/01/13 06:52:54;;;;;;;55.63;13.95;;;;;;;1.27;100.00;104130.97;5043112;28;20033;-73
2022/01/13 06:55:19;;;;;;;60.75;12.95;;;;;;;1.27;100.00;104125.88;5043515;28;20180;-74
2022/01/13 06:57:46;;;;;;;53.88;13.07;;;;;;;1.29;100.00;104125.97;5053058;28;20028;-74
2022/01/13 07:00:11;;;;;;;73.38;13.43;;;;;;;1.27;100.00;104130.97;5057127;28;20029;-73
2022/01/13 07:02:37;;;;;;;51.92;12.52;;;;;;;1.27;100.00;104122.41;5046133;28;20442;-73
2022/01/13 07:05:02;;;;;;;64.30;11.50;;;;;;;1.25;100.00;104119.75;5047603;28;20029;-73
2022/01/13 07:07:33;;;;;;;54.17;12.10;;;;;;;1.24;100.00;104123.09;5035860;28;20052;-73
2022/01/13 07:09:58;;;;;;;65.13;13.85;;;;;;;1.23;100.00;104131.53;5048899;28;20033;-73
2022/01/13 07:12:24;;;;;;;60.25;13.07;;;;;;;1.23;100.00;104128.97;5053770;28;20025;-73
2022/01/13 07:14:49;;;;;;;61.97;14.93;;;;;;;1.18;100.00;104121.00;5050267;28;20025;-73
2022/01/13 07:17:15;;;;;;;62.78;13.20;;;;;;;1.24;100.00;104135.88;5047398;28;20041;-73
2022/01/13 07:19:40;;;;;;;58.78;13.23;;;;;;;1.26;100.00;104129.19;5044015;28;20134;-73
2022/01/13 07:22:06;;;;;;;56.03;13.23;;;;;;;1.27;100.00;104124.97;5057181;28;20116;-73
2022/01/13 07:24:31;;;;;;;57.42;13.07;;;;;;;1.28;100.00;104124.19;5055150;28;20111;-72
2022/01/13 07:26:56;;;;;;;60.78;13.52;;;;;;;1.30;100.00;104122.63;5035694;28;20026;-72
2022/01/13 07:29:22;;;;;;;60.28;12.88;;;;;;;1.27;100.00;104117.31;5059578;28;20021;-73
2022/01/13 07:31:48;;;;;;;62.20;13.50;;;;;;;1.30;100.00;104130.31;5065157;28;20090;-73
2022/01/13 07:34:13;;;;;;;66.85;14.30;;;;;;;1.30;100.00;104131.16;5069756;28;20021;-73
2022/01/13 07:36:40;;;;;;;61.85;12.65;;;;;;;1.31;100.00;104130.38;5039826;28;20098;-73
2022/01/13 07:39:05;;;;;;;52.85;13.13;;;;;;;1.31;100.00;104129.50;5046935;28;20115;-73
2022/01/13 07:41:31;;;;;;;49.03;12.13;;;;;;;1.33;100.00;104127.94;5067204;28;20053;-73
2022/01/13 07:43:57;;;;;;;61.22;12.65;;;;;;;1.31;100.00;104138.03;5057863;28;20037;-73
2022/01/13 07:46:23;;;;;;;61.75;12.50;;;;;;;1.32;100.00;104132.16;5057590;28;20028;-74
2022/01/13 07:48:49;;;;;;;54.55;13.65;;;;;;;1.33;100.00;104127.94;5044367;28;20028;-74
2022/01/13 07:51:14;;;;;;;52.33;12.48;;;;;;;1.31;100.00;104130.38;5059987;28;20021;-74
2022/01/13 07:53:40;;;;;;;47.28;12.23;;;;;;;1.33;100.00;104136.50;5055513;28;20032;-74
2022/01/13 07:56:05;;;;;;;53.08;12.00;;;;;;;1.36;100.00;104135.81;5048658;28;20029;-74
2022/01/13 07:58:33;;;;;;;49.75;11.90;;;;;;;1.37;100.00;104143.56;5040786;28;20106;-74
2022/01/13 08:00:58;;;;;;;47.67;12.15;;;;;;;1.36;100.00;104136.72;5035515;28;20395;-74
2022/01/13 08:03:23;;;;;;;49.05;11.52;;;;;;;1.39;100.00;104139.44;5067773;28;20028;-74
2022/01/13 08:05:49;;;;;;;57.57;12.87;;;;;;;1.41;100.00;104145.56;5033915;28;20021;-73
2022/01/13 08:08:14;;;;;;;46.20;11.82;;;;;;;1.43;100.00;104140.56;5042116;28;20279;-73
2022/01/13 08:10:39;;;;;;;55.45;11.95;;;;;;;1.44;100.00;104140.63;5027693;28;20123;-73
2022/01/13 08:13:05;;;;;;;49.92;12.43;;;;;;;1.46;100.00;104154.41;5045473;28;20371;-74
2022/01/13 08:15:30;;;;;;;43.20;11.25;;;;;;;1.48;100.00;104146.84;5018204;28;20036;-73
2022/01/13 08:20:40;;;;;;;46.43;11.50;;;;;;;1.50;100.00;104156.38;5043679;28;20094;-73
2022/01/13 08:23:06;;;;;;;50.85;12.00;;;;;;;1.50;100.00;104156.38;5052313;28;20032;-73
2022/01/13 08:25:32;;;;;;;61.35;12.95;;;;;;;1.53;100.00;104165.94;5041332;28;20020;-73
2022/01/13 08:27:58;;;;;;;48.22;11.95;;;;;;;1.54;100.00;104154.94;5037954;28;20040;-73
2022/01/13 08:30:23;;;;;;;56.85;11.75;;;;;;;1.55;100.00;104165.25;5051331;28;20637;-74
2022/01/13 08:32:49;;;;;;;57.28;10.77;;;;;;;1.56;100.00;104167.03;5065682;28;20256;-73
2022/01/13 08:35:14;;;;;;;51.15;11.80;;;;;;;1.58;100.00;104169.66;5067565;28;20033;-74
2022/01/13 08:37:40;;;;;;;50.17;12.88;;;;;;;1.56;100.00;104167.03;5050877;28;20016;-73
2022/01/13 08:40:08;;;;;;;61.42;13.00;;;;;;;1.58;100.00;104175.66;5047326;28;20049;-74
2022/01/13 08:42:34;;;;;;;59.60;12.25;;;;;;;1.61;100.00;104182.66;5049314;28;20071;-73
2022/01/13 08:45:00;;;;;;;59.30;12.02;;;;;;;1.62;100.00;104184.44;5043466;28;20055;-73
2022/01/13 08:47:25;;;;;;;42.10;12.15;;;;;;;1.65;100.00;104179.53;5060813;28;20052;-74
2022/01/13 08:49:50;;;;;;;45.78;11.55;;;;;;;1.67;100.00;104179.63;5049687;28;20105;-74
2022/01/13 08:52:16;;;;;;;49.15;11.52;;;;;;;1.73;100.00;104180.03;5056524;28;20071;-74
2022/01/13 08:54:45;;;;;;;39.65;11.45;;;;;;;1.76;100.00;104176.03;5049819;28;20162;-74
2022/01/13 08:57:11;;;;;;;46.72;10.38;;;;;;;1.80;100.00;104180.53;5058299;28;20369;-73
2022/01/13 08:59:36;;;;;;;50.88;10.75;;;;;;;1.84;100.00;104181.63;5044168;28;20028;-74
2022/01/13 09:02:02;;;;;;;52.90;10.95;;;;;;;1.88;100.00;104173.38;5047744;28;20024;-73
2022/01/13 09:04:27;;;;;;;42.33;10.88;;;;;;;1.96;100.00;104178.22;5022454;28;20503;-74
2022/01/13 09:06:52;;;;;;;53.13;11.20;;;;;;;2.01;100.00;104183.59;5056345;28;20039;-73
2022/01/13 09:09:18;;;;;;;46.63;11.10;;;;;;;2.04;100.00;104177.81;5049782;28;20036;-74
2022/01/13 09:11:45;;;;;;;47.20;12.27;;;;;;;2.07;100.00;104183.13;5049809;28;20036;-74
2022/01/13 09:14:10;;;;;;;57.67;11.98;;;;;;;2.07;100.00;104183.13;5068716;28;20175;-73
2022/01/13 09:16:44;;;;;;;46.40;10.93;;;;;;;2.07;100.00;104178.00;5068724;28;20183;-73
2022/01/13 09:19:12;;;;;;;41.03;11.50;;;;;;;2.08;100.00;104179.78;5037498;28;20403;-73
2022/01/13 09:21:40;;;;;;;54.15;11.75;;;;;;;2.08;100.00;104175.53;5052619;28;20028;-73
2022/01/13 09:24:09;;;;;;;39.45;10.73;;;;;;;2.13;100.00;104186.06;5060385;28;20021;-73
2022/01/13 09:26:35;;;;;;;41.33;11.07;;;;;;;2.18;100.00;104184.72;5050471;28;20057;-73
2022/01/13 09:29:00;;;;;;;48.78;11.60;;;;;;;2.22;100.00;104189.22;5045599;28;20042;-73
2022/01/13 09:31:26;;;;;;;39.70;11.15;;;;;;;2.22;100.00;104179.00;5068704;28;20443;-74
2022/01/13 09:33:53;;;;;;;40.78;11.07;;;;;;;2.24;100.00;104183.44;5068520;28;20467;-74
2022/01/13 09:36:19;;;;;;;39.65;10.30;;;;;;;2.29;100.00;104179.47;5068318;28;20056;-74
2022/01/13 09:38:44;;;;;;;37.50;10.27;;;;;;;2.32;100.00;104189.03;5068598;28;20536;-73
2022/01/13 09:41:12;;;;;;;47.53;11.07;;;;;;;2.33;100.00;104185.66;5067590;28;20044;-73
2022/01/13 09:43:42;;;;;;;38.88;10.30;;;;;;;2.35;100.00;104185.00;5041027;28;20045;-73
2022/01/13 09:46:07;;;;;;;51.25;11.40;;;;;;;2.37;100.00;104185.97;5068373;28;20082;-73
2022/01/13 09:48:32;;;;;;;39.50;10.98;;;;;;;2.43;100.00;104184.59;5049179;28;20029;-74
2022/01/13 09:50:58;;;;;;;43.10;10.48;;;;;;;2.45;100.00;104191.59;5050594;28;20064;-74
2022/01/13 09:53:23;;;;;;;39.38;10.68;;;;;;;2.49;100.00;104196.09;5046766;28;20020;-74
2022/01/13 09:55:49;;;;;;;40.88;10.95;;;;;;;2.56;100.00;104187.13;5070704;28;20074;-73
2022/01/13 09:58:15;;;;;;;40.35;11.85;;;;;;;2.58;100.00;104190.69;5051844;28;20044;-74
2022/01/13 10:00:43;;;;;;;43.13;11.18;;;;;;;2.60;100.00;104195.09;5069602;28;20025;-74
2022/01/13 10:03:14;;;;;;;49.17;12.07;;;;;;;2.62;100.00;104203.75;5059114;28;20021;-74
2022/01/13 10:06:00;;;;;;;53.15;12.70;;;;;;;2.64;100.00;104191.06;5070177;28;20517;-74
2022/01/13 10:08:45;;;;;;;45.53;12.38;;;;;;;2.66;100.00;104197.19;5042652;28;20052;-74
2022/01/13 10:11:36;;;;;;;46.92;11.98;;;;;;;2.66;100.00;104195.47;5053628;28;20060;-74
2022/01/13 10:16:59;;;;;;;42.97;11.32;;;;;;;2.68;100.00;104198.13;5069985;28;20063;-74
2022/01/13 10:19:39;;;;;;;43.50;10.60;;;;;;;2.74;100.00;104195.94;5053432;28;20459;-74
2022/01/13 10:22:15;;;;;;;41.33;10.40;;;;;;;2.77;100.00;104199.59;5068238;28;20063;-74
2022/01/13 10:24:45;;;;;;;49.80;11.00;;;;;;;2.84;100.00;104192.28;5058432;28;20494;-74
2022/01/13 10:27:22;;;;;;;39.92;10.77;;;;;;;2.88;100.00;104187.44;5045642;28;20028;-74
2022/01/13 10:29:52;;;;;;;54.30;12.40;;;;;;;2.91;100.00;104181.63;5062767;28;20502;-74
2022/01/13 10:32:23;;;;;;;60.05;13.10;;;;;;;2.96;100.00;104183.69;5053020;28;20028;-74
2022/01/13 10:34:55;;;;;;;49.30;12.43;;;;;;;2.97;100.00;104180.34;5071258;28;20094;-74
2022/01/13 10:37:35;;;;;;;43.17;12.38;;;;;;;3.03;100.00;104184.94;5071400;28;20116;-74
2022/01/13 10:40:05;;;;;;;49.38;13.63;;;;;;;3.04;100.00;104177.34;5070915;28;20055;-74
2022/01/13 10:45:10;;;;;;;61.35;14.20;;;;;;;3.15;100.00;104176.31;5064315;28;20029;-74
2022/01/13 10:47:37;;;;;;;54.80;14.85;;;;;;;3.20;100.00;104179.16;5056523;28;20028;-74
2022/01/13 10:50:07;;;;;;;56.30;13.88;;;;;;;3.20;100.00;104181.72;5071079;28;20024;-74
2022/01/13 10:52:32;;;;;;;48.22;14.32;;;;;;;3.22;100.00;104169.88;5070966;28;20035;-74
2022/01/13 10:55:12;;;;;;;44.17;12.43;;;;;;;3.26;100.00;104173.53;5059685;28;20037;-74
2022/01/13 10:57:42;;;;;;;51.72;14.15;;;;;;;3.29;100.00;104168.56;5050300;28;20047;-74
2022/01/13 11:00:16;;;;;;;45.58;12.70;;;;;;;3.36;100.00;104169.00;5061919;28;20029;-74
2022/01/13 11:03:06;;;;;;;45.88;13.10;;;;;;;3.39;100.00;104168.31;5060426;28;20029;-73
2022/01/13 11:05:34;;;;;;;40.85;12.00;;;;;;;3.36;100.00;104163.00;5033174;28;20032;-74
2022/01/13 11:08:03;;;;;;;45.13;12.55;;;;;;;3.35;100.00;104166.34;5062298;28;20025;-74
2022/01/13 11:10:28;;;;;;;50.05;14.55;;;;;;;3.36;100.00;104160.44;5070699;28;20032;-74
2022/01/13 11:12:58;;;;;;;44.80;14.02;;;;;;;3.41;100.00;104159.06;5052409;28;20475;-74
2022/01/13 11:15:25;;;;;;;49.92;13.75;;;;;;;3.49;100.00;104152.66;5052511;28;20024;-74
2022/01/13 11:17:54;;;;;;;46.78;13.02;;;;;;;3.56;100.00;104147.09;5052183;28;20498;-74
2022/01/13 11:20:20;;;;;;;47.72;12.10;;;;;;;3.61;100.00;104148.28;5070227;28;20399;-74
2022/01/13 11:22:47;;;;;;;44.78;12.52;;;;;;;3.60;100.00;104143.94;5051462;28;20456;-74
2022/01/13 11:25:16;;;;;;;45.00;13.18;;;;;;;3.58;100.00;104146.41;5058968;28;20044;-74
2022/01/13 11:27:42;;;;;;;51.40;13.20;;;;;;;3.62;100.00;104141.47;5059794;28;20044;-74
2022/01/13 11:30:14;;;;;;;46.95;13.30;;;;;;;3.64;100.00;104135.63;5052001;28;20428;-74
2022/01/13 11:32:40;;;;;;;49.17;13.35;;;;;;;3.64;99.90;104133.03;5070157;28;20023;-73
2022/01/13 11:35:08;;;;;;;48.85;12.57;;;;;;;3.64;99.31;104125.34;5062312;28;20392;-74
2022/01/13 11:37:34;;;;;;;50.55;13.27;;;;;;;3.58;99.31;104132.69;5037896;28;20033;-74
2022/01/13 11:40:00;;;;;;;51.53;13.07;;;;;;;3.57;100.00;104123.22;5064368;28;20049;-74
2022/01/13 11:42:26;;;;;;;45.25;13.23;;;;;;;3.58;100.00;104130.13;5051589;28;20029;-74